Hors Challenge

Le Trail Du Beaujolais Nouveau - Haversin (32.00 km)

samedi 20 novembre 2021

Vous pouvez trouver Le classement original sur : http://ultratiming.be  
 
LE TRAIL DU BEAUJOLAIS NOUVEAU - HAVERSIN
DISTANCE : 32.00 km
samedi 20 novembre 2021
 
Place Dos NOM Catégorie Pl/cat Temps Temps/km Vitesse
01:00:00              
1 206 BERNAERTS TIM SEH 1 2:32:25 04:46 12.60
2 214 CARLIER ANSGAR SEH 2 2:36:40 04:54 12.26
3 325 VINCENT ADRIEN ESPH 1 2:39:25 04:59 12.04
4 221 DE LANGHE BART SEH 3 2:44:42 05:09 11.66
5 247 GEORGES BENOIT V1H 1 2:47:19 05:14 11.48
6 299 PRAILE THOMAS SEH 4 2:54:54 05:28 10.98
7 224 DELOBBE PIERRE SEH 5 2:55:29 05:29 10.94
8 290 MEEÛS BARTHÉLÉMY SEH 6 2:57:05 05:32 10.84
9 240 DULON OLIVIER V2H 1 2:59:08 05:36 10.72
10 267 LAFFINEUR JÉRÔME SEH 7 2:59:44 05:37 10.68
11 295 MOTTET PHILIPPE V2H 2 2:59:45 05:37 10.68
12 309 SCHAERS LAURENT SEH 8 3:03:05 05:43 10.49
13 222 DEGREZ FRANÇOIS SEH 9 3:06:37 05:50 10.29
14 201 ANCIAUX JEAN-PAUL V2H 3 3:07:17 05:51 10.25
15 296 NIZET PIERRE SEH 10 3:08:05 05:53 10.21
16 254 HENRY VALENTIN SEH 11 3:08:14 05:53 10.20
17 305 RULKIN SOPHIE SEF 1 3:08:19 05:53 10.20
18 229 DESILLE NICOLE V2F 1 3:10:02 05:56 10.10
19 314 TASSOT CHRISTOPHE V2H 4 3:10:06 05:56 10.10
20 304 ROY ALBIN SEH 12 3:12:12 06:00 9.99
21 302 ROSSION ARNAUD SEH 13 3:14:18 06:04 9.88
22 271 LAVARRA ROMAIN SEH 14 3:16:11 06:08 9.79
23 330 MEERTE ALEXANDRE SEH 15 3:17:53 06:11 9.70
24 280 LIPPOLIS DOMINIQUE V1H 2 3:18:37 06:12 9.67
25 228 DESILLE FREDERIC V1H 3 3:18:44 06:13 9.66
26 298 POTTIER STEPHAN V1H 4 3:19:37 06:14 9.62
27 311 SERVAIS ARNAUD SEH 16 3:20:35 06:16 9.57
28 208 BONATO BENOÎT V2H 5 3:21:30 06:18 9.53
29 284 LOSSEAU GUILLAUME SEH 17 3:21:58 06:19 9.51
30 307 SALAZAR NOEL V1H 5 3:24:13 06:23 9.40
31 244 FRERE SEBASTIEN SEH 18 3:25:29 06:25 9.34
32 278 LEURQUIN AUGUSTIN SEH 19 3:25:45 06:26 9.33
33 216 CHOPIN CÉDRIC SEH 20 3:27:46 06:30 9.24
34 317 V.VOORTHUIJSEN BAUKE V2H 6 3:27:50 06:30 9.24
35 291 MEEÛS GABRIEL SEH 21 3:28:52 06:32 9.19
36 255 HEYDEN CHRISTIAN V2H 7 3:31:21 06:36 9.08
37 266 KUIPERS ALEX V1H 6 3:35:02 06:43 8.93
38 306 RUWET NICOLAS SEH 22 3:36:29 06:46 8.87
39 215 CARRETTE CÉDRIC V1H 7 3:36:30 06:46 8.87
40 286 MAQUET JORDAN SEH 23 3:37:42 06:48 8.82
41 288 MARÉCHAL PABLO SEH 24 3:38:07 06:49 8.80
42 261 JAUMOTTE STÉPHANE SEH 25 3:38:56 06:50 8.77
43 251 GUEUNING BENOÎT V1H 8 3:39:05 06:51 8.76
44 241 DUPONT GABRIEL SEH 26 3:39:09 06:51 8.76
45 301 RIGAL ANNE-SOPHIE SEF 2 3:39:09 06:51 8.76
46 245 FROONINCKX AUDREY SEF 3 3:43:32 06:59 8.59
47 316 TREVISSON DOMINIQUE V2H 8 3:43:34 06:59 8.59
48 203 BECKRICH XAVIER V2H 9 3:44:02 07:00 8.57
49 279 LIETARD OLIVIER V2H 10 3:44:46 07:01 8.54
50 211 BOURDOUX THIERRY SEH 27 3:45:28 07:03 8.52
51 303 ROULE THOMAS SEH 28 3:46:13 07:04 8.49
52 207 BOITEUX MATHIEU V1H 9 3:47:42 07:07 8.43
53 204 BEEKHUIS JENNIFER V1F 1 3:47:47 07:07 8.43
54 326 VONDOU GUESSING SEH 29 3:48:06 07:08 8.42
55 257 HOCHART LAURENT V1H 10 3:48:38 07:09 8.40
56 239 DULAIT DAPHNÉ V1F 2 3:51:16 07:14 8.30
57 225 DELOCHE DAVID V2H 11 3:52:21 07:16 8.26
58 300 QUITTELIER JASON SEH 30 3:52:42 07:16 8.25
59 285 MACHIELSEN BIEKE SEF 4 3:52:43 07:16 8.25
60 253 HAVRENNE JONATHAN SEH 31 3:52:43 07:16 8.25
61 258 HORIDOR STEPHAN V2H 12 3:53:19 07:17 8.23
62 252 HARDENNE FREDERICK V2H 13 3:53:19 07:17 8.23
63 294 MONIN MIGUEL V1H 11 3:54:29 07:20 8.19
64 243 FAMEREE BENJAMIN V1H 12 3:55:25 07:21 8.16
65 249 GINES NICOLAS V1H 13 3:56:37 07:24 8.11
66 308 SCAILLET VINCENT V2H 14 3:57:33 07:25 8.08
67 319 VAN TICHELEN BENOIT V2H 15 3:57:41 07:26 8.08
68 230 DESQUESNES VINCENT V1H 14 4:00:31 07:31 7.98
69 277 LEPOUTRE FREDERIC V1H 15 4:00:31 07:31 7.98
70 310 SCOUBEAU OLIVIER V2H 16 4:00:44 07:31 7.98
71 234 DEWEZ GEOFFROY V1H 16 4:01:19 07:32 7.96
72 235 DEWIT RAYMOND V2H 17 4:03:46 07:37 7.88
73 283 LIXANDRU ANDREI V1H 17 4:04:03 07:38 7.87
74 212 BRISON KATHY V1F 3 4:05:20 07:40 7.83
75 272 LECLABART YVES V2H 18 4:06:14 07:42 7.80
76 270 LANNOY VALÉRIE SEF 5 4:06:25 07:42 7.79
77 223 DELBROUCK SIMON SEH 32 4:07:17 07:44 7.76
78 202 BALANDIER JEAN-YVES V1H 18 4:08:24 07:46 7.73
79 210 BOTTE MARIEN SEH 33 4:09:07 07:47 7.71
80 248 GHYSEN ANDRÉ V3H 1 4:11:09 07:51 7.64
81 220 D'ASPREMONT LYNDEN TANCRÈDE SEH 34 4:12:22 07:53 7.61
82 313 SLANGEN CHRISTOPHE SEH 35 4:12:27 07:53 7.61
83 292 MICHELIS FRANÇOIS SEH 36 4:12:33 07:54 7.60
84 289 MASURE JONATHAN SEH 37 4:14:45 07:58 7.54
85 256 HIRTZ BENOIT V2H 19 4:14:46 07:58 7.54
86 273 LEGARDIEN OLIVIER V1H 19 4:14:53 07:58 7.53
87 282 LISSOIR CÉDRIC V1H 20 4:16:22 08:01 7.49
88 324 VERRAGHENNE AMANDINE SEF 6 4:17:47 08:03 7.45
89 327 WILLEMS EVELYNE V1F 4 4:18:07 08:04 7.44
90 268 LAMORT FREDERIC V1H 21 4:18:08 08:04 7.44
91 213 BROUILLARD JULIEN SEH 38 4:19:34 08:07 7.40
92 275 LEHANNE ERIC V1H 22 4:20:59 08:09 7.36
93 321 VANBLAERE FREDERIC V2H 20 4:21:14 08:10 7.35
94 323 VANDERGEETEN CLAIRE V1F 5 4:21:37 08:11 7.34
95 265 KINET OLIVIER V2H 21 4:21:37 08:11 7.34
96 219 COLSON LAURENT V1H 23 4:25:12 08:17 7.24
97 2266 XXX XXX   4:31:42 08:29 7.07
98 322 VANDEPUTTE CÉDRIC V1H 24 4:39:01 08:43 6.88
99 269 LANCE DIDIER V2H 22 4:39:01 08:43 6.88
100 400 HENROTIN PIERRE V2H 23 4:48:47 09:01 6.65
101 250 GOSSART THOMAS SEH 39 4:51:26 09:06 6.59
102 260 JACQUEMIN CÉDRIC SEH 40 4:51:30 09:07 6.59
               
Nos dernières videos